createdAt,value
2018-07-11T00:00:20.189Z,84.84
2018-07-11T00:01:20.242Z,83.83
2018-07-11T00:02:20.165Z,83.42
2018-07-11T00:03:20.155Z,83.22
2018-07-11T00:04:20.148Z,83.22
2018-07-11T00:05:20.132Z,85.46
2018-07-11T00:06:20.195Z,85.15
2018-07-11T00:07:20.110Z,85.25
2018-07-11T00:08:20.095Z,85.39
2018-07-11T00:09:20.090Z,82.85
2018-07-11T00:10:20.082Z,83.36
2018-07-11T00:11:20.150Z,84.78
2018-07-11T00:12:20.054Z,85.39
2018-07-11T00:13:20.043Z,84.99
2018-07-11T00:14:20.036Z,85.39
2018-07-11T00:15:20.024Z,84.38
2018-07-11T00:16:20.092Z,83.97
2018-07-11T00:17:20.002Z,83.46
2018-07-11T00:18:19.991Z,83.46
2018-07-11T00:19:20.905Z,83.97
2018-07-11T00:20:19.968Z,83.56
2018-07-11T00:21:20.021Z,83.67
2018-07-11T00:22:19.946Z,83.87
2018-07-11T00:23:19.938Z,83.97
2018-07-11T00:24:19.930Z,85.19
2018-07-11T00:25:19.918Z,84.99
2018-07-11T00:26:19.968Z,85.09
2018-07-11T00:27:19.891Z,85.60
2018-07-11T00:28:19.882Z,85.19
2018-07-11T00:29:19.874Z,85.33
2018-07-11T00:30:19.864Z,85.29
2018-07-11T00:31:19.921Z,85.49
2018-07-11T00:32:19.841Z,85.43
2018-07-11T00:33:19.830Z,84.38
2018-07-11T00:34:19.820Z,84.72
2018-07-11T00:35:19.808Z,85.09
2018-07-11T00:36:19.874Z,85.23
2018-07-11T00:37:19.880Z,85.39
2018-07-11T00:38:19.783Z,84.21
2018-07-11T00:39:19.767Z,85.39
2018-07-11T00:40:20.405Z,84.01
2018-07-11T00:41:19.809Z,84.52
2018-07-11T00:42:19.731Z,85.84
2018-07-11T00:43:19.725Z,86.10
2018-07-11T00:44:19.710Z,86.15
2018-07-11T00:45:19.701Z,85.33
2018-07-11T00:46:19.753Z,85.43
2018-07-11T00:47:19.676Z,86.15
2018-07-11T00:48:19.670Z,86.04
2018-07-11T00:49:19.665Z,86.55
2018-07-11T00:50:19.648Z,85.64
2018-07-11T00:51:19.703Z,85.84
2018-07-11T00:52:19.626Z,85.84
2018-07-11T00:53:19.615Z,86.04
2018-07-11T00:54:19.604Z,85.23
2018-07-11T00:55:19.592Z,85.37
2018-07-11T00:56:19.651Z,85.33
2018-07-11T00:57:19.576Z,85.47
2018-07-11T00:58:19.564Z,85.47
2018-07-11T00:59:19.554Z,85.43
2018-07-11T01:00:19.538Z,85.27
2018-07-11T01:01:20.014Z,85.27
2018-07-11T01:02:19.521Z,85.68
2018-07-11T01:03:19.510Z,85.37
2018-07-11T01:04:19.499Z,85.68
2018-07-11T01:05:19.488Z,86.29
2018-07-11T01:06:19.543Z,85.47
2018-07-11T01:07:19.463Z,85.98
2018-07-11T01:08:19.452Z,86.39
2018-07-11T01:09:27.615Z,86.49
2018-07-11T01:10:27.598Z,86.02
2018-07-11T01:11:27.597Z,85.92
2018-07-11T01:12:27.509Z,86.69
2018-07-11T01:13:27.519Z,87.61
2018-07-11T01:14:19.388Z,87.14
2018-07-11T01:15:19.380Z,87.35
2018-07-11T01:16:19.435Z,86.94
2018-07-11T01:17:27.544Z,86.53
2018-07-11T01:18:27.455Z,86.33
2018-07-11T01:19:29.305Z,86.83
2018-07-11T01:20:30.344Z,86.74
2018-07-11T01:21:26.930Z,86.13
2018-07-11T01:22:27.374Z,87.75
2018-07-11T01:23:19.295Z,86.94
2018-07-11T01:24:19.286Z,86.94
2018-07-11T01:25:19.269Z,86.83
2018-07-11T01:26:19.330Z,87.29
2018-07-11T01:27:19.265Z,87.65
2018-07-11T01:28:19.239Z,87.38
2018-07-11T01:29:19.225Z,87.24
2018-07-11T01:30:19.795Z,87.85
2018-07-11T01:31:19.277Z,87.29
2018-07-11T01:32:19.195Z,87.18
2018-07-11T01:33:19.184Z,86.53
2018-07-11T01:34:19.178Z,87.69
2018-07-11T01:35:19.167Z,87.79
2018-07-11T01:36:19.220Z,86.47
2018-07-11T01:37:19.142Z,87.45
2018-07-11T01:38:19.134Z,86.94
2018-07-11T01:39:19.120Z,87.45
2018-07-11T01:40:19.115Z,86.43
2018-07-11T01:41:19.098Z,85.92
2018-07-11T01:42:19.155Z,85.51
2018-07-11T01:43:19.794Z,85.00
2018-07-11T01:44:19.065Z,84.50
2018-07-11T01:45:19.059Z,83.23
2018-07-11T01:46:19.056Z,83.48
2018-07-11T01:47:19.100Z,83.84
2018-07-11T01:48:19.028Z,85.58
2018-07-11T01:49:19.010Z,83.95
2018-07-11T01:50:19.004Z,83.84
2018-07-11T01:51:18.995Z,83.54
2018-07-11T01:52:19.048Z,83.23
2018-07-11T01:53:18.970Z,83.13
2018-07-11T01:54:18.978Z,83.23
2018-07-11T01:55:18.946Z,83.95
2018-07-11T01:56:18.938Z,83.74
2018-07-11T01:57:19.000Z,83.54
2018-07-11T01:58:18.915Z,83.64
2018-07-11T01:59:18.909Z,84.25
2018-07-11T02:00:18.895Z,83.23
2018-07-11T02:01:18.902Z,84.45
2018-07-11T02:02:18.938Z,82.21
2018-07-11T02:03:18.876Z,82.62
2018-07-11T02:04:19.798Z,82.42
2018-07-11T02:05:18.838Z,82.42
2018-07-11T02:06:18.827Z,82.32
2018-07-11T02:07:18.880Z,82.93
2018-07-11T02:08:18.805Z,82.12
2018-07-11T02:09:18.794Z,82.01
2018-07-11T02:10:18.788Z,82.12
2018-07-11T02:11:18.777Z,82.42
2018-07-11T02:12:18.837Z,82.42
2018-07-11T02:13:18.755Z,82.12
2018-07-11T02:14:18.744Z,82.01
2018-07-11T02:15:18.731Z,83.54
2018-07-11T02:16:18.723Z,83.81
2018-07-11T02:17:18.774Z,83.74
2018-07-11T02:18:18.700Z,84.31
2018-07-11T02:19:18.692Z,82.82
2018-07-11T02:20:18.678Z,83.64
2018-07-11T02:21:18.667Z,83.91
2018-07-11T02:22:18.725Z,82.48
2018-07-11T02:23:18.645Z,83.70
2018-07-11T02:24:18.639Z,84.11
2018-07-11T02:25:19.288Z,84.42
2018-07-11T02:26:18.624Z,84.62
2018-07-11T02:27:18.680Z,84.42
2018-07-11T02:28:18.595Z,85.13
2018-07-11T02:29:18.587Z,84.42
2018-07-11T02:30:18.573Z,83.81
2018-07-11T02:31:18.563Z,84.82
2018-07-11T02:32:18.628Z,83.60
2018-07-11T02:33:18.537Z,84.11
2018-07-11T02:34:18.527Z,83.60
2018-07-11T02:35:18.518Z,83.29
2018-07-11T02:36:18.507Z,83.91
2018-07-11T02:37:18.560Z,83.91
2018-07-11T02:38:18.490Z,81.77
2018-07-11T02:39:18.477Z,83.09
2018-07-11T02:40:18.479Z,82.79
2018-07-11T02:41:18.452Z,83.81
2018-07-11T02:42:18.511Z,83.81
2018-07-11T02:43:18.433Z,82.28
2018-07-11T02:44:18.418Z,82.59
2018-07-11T02:45:18.413Z,83.70
2018-07-11T02:46:19.285Z,83.40
2018-07-11T02:47:18.460Z,83.70
2018-07-11T02:48:18.377Z,83.50
2018-07-11T02:49:18.371Z,82.93
2018-07-11T02:50:18.365Z,82.12
2018-07-11T02:51:18.346Z,83.03
2018-07-11T02:52:18.399Z,82.82
2018-07-11T02:53:18.325Z,83.95
2018-07-11T02:54:18.313Z,84.05
2018-07-11T02:55:18.312Z,83.23
2018-07-11T02:56:18.295Z,84.35
2018-07-11T02:57:18.349Z,84.66
2018-07-11T02:58:18.277Z,84.39
2018-07-11T02:59:18.256Z,84.05
2018-07-11T03:00:18.251Z,84.70
2018-07-11T03:01:18.237Z,85.31
2018-07-11T03:02:18.296Z,86.02
2018-07-11T03:03:18.221Z,85.41
2018-07-11T03:04:18.215Z,84.70
2018-07-11T03:05:18.198Z,85.31
2018-07-11T03:06:18.185Z,84.39
2018-07-11T03:07:18.357Z,85.72
2018-07-11T03:08:18.177Z,85.51
2018-07-11T03:09:18.158Z,85.72
2018-07-11T03:10:18.140Z,85.41
2018-07-11T03:11:18.128Z,85.82
2018-07-11T03:12:18.202Z,86.37
2018-07-11T03:13:18.109Z,85.55
2018-07-11T03:14:18.109Z,86.16
2018-07-11T03:15:18.084Z,86.37
2018-07-11T03:16:18.075Z,85.55
2018-07-11T03:17:18.128Z,86.27
2018-07-11T03:18:18.063Z,85.86
2018-07-11T03:19:18.045Z,86.16
2018-07-11T03:20:18.036Z,86.68
2018-07-11T03:21:18.020Z,87.38
2018-07-11T03:22:18.078Z,87.59
2018-07-11T03:23:18.000Z,87.38
2018-07-11T03:24:17.989Z,86.37
2018-07-11T03:25:17.978Z,85.25
2018-07-11T03:26:17.967Z,85.45
2018-07-11T03:27:18.030Z,85.45
2018-07-11T03:28:18.783Z,86.06
2018-07-11T03:29:17.937Z,86.06
2018-07-11T03:30:17.934Z,86.27
2018-07-11T03:31:18.779Z,86.16
2018-07-11T03:32:17.901Z,86.27
2018-07-11T03:33:17.956Z,86.77
2018-07-11T03:34:17.883Z,87.08
2018-07-11T03:35:17.881Z,86.98
2018-07-11T03:36:17.870Z,87.69
2018-07-11T03:37:17.849Z,88.00
2018-07-11T03:38:17.898Z,87.69
2018-07-11T03:39:17.826Z,88.31
2018-07-11T03:40:17.818Z,87.90
2018-07-11T03:41:17.811Z,87.79
2018-07-11T03:42:17.798Z,87.08
2018-07-11T03:43:17.854Z,86.16
2018-07-11T03:44:17.774Z,86.06
2018-07-11T03:45:17.768Z,86.16
2018-07-11T03:46:17.751Z,86.47
2018-07-11T03:47:17.745Z,86.27
2018-07-11T03:48:17.796Z,86.68
2018-07-11T03:49:18.289Z,86.68
2018-07-11T03:50:17.718Z,86.88
2018-07-11T03:51:17.702Z,86.68
2018-07-11T03:52:17.688Z,86.27
2018-07-11T03:53:17.751Z,86.57
2018-07-11T03:54:17.670Z,87.08
2018-07-11T03:55:17.658Z,87.49
2018-07-11T03:56:17.644Z,87.29
2018-07-11T03:57:17.633Z,85.35
2018-07-11T03:58:17.691Z,85.45
2018-07-11T03:59:17.611Z,85.39
2018-07-11T04:00:17.602Z,86.41
2018-07-11T04:01:17.591Z,86.27
2018-07-11T04:02:17.583Z,85.90
2018-07-11T04:03:17.638Z,85.75
2018-07-11T04:04:17.563Z,86.21
2018-07-11T04:05:17.548Z,85.19
2018-07-11T04:06:17.536Z,83.76
2018-07-11T04:07:17.530Z,82.70
2018-07-11T04:08:17.593Z,83.01
2018-07-11T04:09:17.508Z,82.40
2018-07-11T04:10:18.271Z,81.58
2018-07-11T04:11:17.486Z,82.43
2018-07-11T04:12:17.472Z,82.50
2018-07-11T04:13:17.534Z,82.40
2018-07-11T04:14:17.453Z,82.84
2018-07-11T04:15:17.441Z,81.58
2018-07-11T04:16:17.431Z,82.94
2018-07-11T04:17:17.420Z,83.21
2018-07-11T04:18:17.470Z,83.62
2018-07-11T04:19:17.401Z,83.62
2018-07-11T04:20:17.387Z,83.01
2018-07-11T04:21:17.376Z,83.01
2018-07-11T04:22:17.364Z,83.51
2018-07-11T04:23:17.422Z,84.03
2018-07-11T04:24:17.340Z,84.64
2018-07-11T04:25:17.340Z,85.35
2018-07-11T04:26:17.318Z,83.92
2018-07-11T04:27:17.312Z,83.92
2018-07-11T04:28:17.367Z,83.92
2018-07-11T04:29:17.290Z,83.92
2018-07-11T04:30:17.279Z,84.64
2018-07-11T04:31:17.785Z,83.72
2018-07-11T04:32:17.260Z,84.12
2018-07-11T04:33:17.325Z,84.23
2018-07-11T04:34:17.235Z,84.74
2018-07-11T04:35:17.253Z,85.45
2018-07-11T04:36:17.221Z,84.74
2018-07-11T04:37:17.203Z,85.66
2018-07-11T04:38:17.265Z,85.25
2018-07-11T04:39:17.188Z,85.45
2018-07-11T04:40:17.172Z,84.23
2018-07-11T04:41:17.160Z,84.12
2018-07-11T04:42:17.147Z,84.39
2018-07-11T04:43:17.215Z,84.59
2018-07-11T04:44:17.130Z,85.41
2018-07-11T04:45:17.120Z,83.78
2018-07-11T04:46:17.108Z,82.15
2018-07-11T04:47:17.097Z,83.78
2018-07-11T04:48:17.144Z,83.48
2018-07-11T04:49:17.067Z,82.46
2018-07-11T04:50:17.069Z,82.15
2018-07-11T04:51:17.053Z,82.15
2018-07-11T04:52:18.772Z,82.26
2018-07-11T04:53:17.099Z,83.78
2018-07-11T04:54:17.017Z,83.17
2018-07-11T04:55:17.011Z,83.48
2018-07-11T04:56:16.997Z,83.89
2018-07-11T04:57:25.257Z,83.84
2018-07-11T04:58:25.230Z,84.86
2018-07-11T04:59:25.169Z,84.66
2018-07-11T05:00:25.190Z,83.84
2018-07-11T05:01:16.984Z,83.84
2018-07-11T05:02:16.949Z,84.76
2018-07-11T05:03:16.995Z,84.11
2018-07-11T05:04:25.123Z,84.42
2018-07-11T05:05:25.034Z,83.60
2018-07-11T05:06:16.892Z,80.51
2018-07-11T05:07:25.040Z,80.62
2018-07-11T05:08:25.514Z,79.02
2018-07-11T05:09:24.384Z,80.00
2018-07-11T05:10:25.511Z,82.04
2018-07-11T05:11:16.905Z,82.34
2018-07-11T05:12:16.826Z,81.43
2018-07-11T05:13:16.818Z,82.04
2018-07-11T05:14:16.865Z,81.63
2018-07-11T05:15:16.795Z,82.24
2018-07-11T05:16:16.844Z,82.54
2018-07-11T05:17:16.794Z,80.92
2018-07-11T05:18:16.757Z,79.97
2018-07-11T05:19:16.815Z,81.12
2018-07-11T05:20:16.746Z,81.23
2018-07-11T05:21:16.727Z,81.02
2018-07-11T05:22:16.721Z,79.90
2018-07-11T05:23:16.712Z,80.31
2018-07-11T05:24:16.763Z,81.12
2018-07-11T05:25:16.685Z,79.25
2018-07-11T05:26:17.626Z,80.47
2018-07-11T05:27:16.668Z,80.07
2018-07-11T05:28:16.650Z,79.05
2018-07-11T05:29:16.710Z,78.51
2018-07-11T05:30:16.640Z,78.71
2018-07-11T05:31:16.622Z,79.93
2018-07-11T05:32:16.608Z,79.83
2018-07-11T05:33:16.602Z,79.83
2018-07-11T05:34:16.650Z,78.91
2018-07-11T05:35:16.577Z,79.93
2018-07-11T05:36:16.625Z,79.83
2018-07-11T05:37:16.559Z,79.83
2018-07-11T05:38:16.553Z,80.13
2018-07-11T05:39:16.600Z,80.27
2018-07-11T05:40:16.525Z,78.71
2018-07-11T05:41:16.524Z,79.12
2018-07-11T05:42:16.509Z,78.91
2018-07-11T05:43:16.498Z,79.32
2018-07-11T05:44:16.545Z,78.51
2018-07-11T05:45:16.475Z,80.24
2018-07-11T05:46:16.459Z,79.93
2018-07-11T05:47:17.124Z,78.10
2018-07-11T05:48:16.463Z,79.02
2018-07-11T05:49:16.494Z,79.08
2018-07-11T05:50:16.414Z,79.42
2018-07-11T05:51:16.407Z,79.02
2018-07-11T05:52:16.394Z,79.52
2018-07-11T05:53:16.395Z,79.28
2018-07-11T05:54:16.439Z,78.98
2018-07-11T05:55:16.362Z,78.91
2018-07-11T05:56:16.354Z,78.78
2018-07-11T05:57:16.345Z,79.18
2018-07-11T05:58:16.332Z,78.57
2018-07-11T05:59:16.384Z,78.06
2018-07-11T06:00:16.312Z,78.27
2018-07-11T06:01:16.317Z,78.67
2018-07-11T06:02:16.290Z,78.57
2018-07-11T06:03:16.297Z,78.47
2018-07-11T06:04:16.342Z,78.17
2018-07-11T06:05:16.262Z,78.47
2018-07-11T06:06:16.254Z,77.86
2018-07-11T06:07:16.235Z,78.37
2018-07-11T06:08:17.122Z,78.37
2018-07-11T06:09:16.279Z,78.37
2018-07-11T06:10:16.202Z,78.27
2018-07-11T06:11:16.193Z,78.17
2018-07-11T06:12:16.190Z,78.06
2018-07-11T06:13:16.219Z,77.97
2018-07-11T06:14:16.223Z,77.45
2018-07-11T06:15:16.151Z,77.66
2018-07-11T06:16:16.158Z,77.42
2018-07-11T06:17:16.135Z,77.32
2018-07-11T06:18:16.121Z,77.22
2018-07-11T06:19:16.189Z,77.62
2018-07-11T06:20:16.102Z,78.03
2018-07-11T06:21:16.099Z,77.08
2018-07-11T06:22:16.077Z,77.52
2018-07-11T06:23:16.066Z,76.98
2018-07-11T06:24:16.122Z,77.18
2018-07-11T06:25:16.051Z,77.18
2018-07-11T06:26:16.033Z,77.18
2018-07-11T06:27:16.024Z,77.38
2018-07-11T06:28:16.014Z,77.08
2018-07-11T06:29:16.195Z,77.25
2018-07-11T06:30:15.991Z,76.47
2018-07-11T06:31:15.986Z,76.94
2018-07-11T06:32:15.969Z,76.64
2018-07-11T06:33:15.952Z,76.13
2018-07-11T06:34:16.026Z,76.23
2018-07-11T06:35:15.933Z,76.20
2018-07-11T06:36:15.933Z,76.13
2018-07-11T06:37:15.912Z,76.29
2018-07-11T06:38:15.907Z,76.23
2018-07-11T06:39:15.989Z,76.09
2018-07-11T06:40:15.880Z,76.13
2018-07-11T06:41:15.867Z,75.59
2018-07-11T06:42:15.860Z,75.99
2018-07-11T06:43:15.848Z,76.09
2018-07-11T06:44:15.901Z,75.79
2018-07-11T06:45:15.829Z,76.09
2018-07-11T06:46:15.818Z,76.06
2018-07-11T06:47:15.804Z,75.85
2018-07-11T06:48:15.798Z,75.76
2018-07-11T06:49:15.785Z,75.45
2018-07-11T06:50:16.201Z,75.25
2018-07-11T06:51:15.762Z,75.21
2018-07-11T06:52:15.757Z,75.45
2018-07-11T06:53:16.620Z,75.11
2018-07-11T06:54:15.734Z,75.11
2018-07-11T06:55:15.784Z,74.91
2018-07-11T06:56:15.707Z,74.81
2018-07-11T06:57:15.699Z,74.71
2018-07-11T06:58:15.687Z,74.87
2018-07-11T06:59:15.676Z,73.93
2018-07-11T07:00:15.734Z,72.68
2018-07-11T07:01:15.652Z,71.10
2018-07-11T07:02:15.643Z,69.95
2018-07-11T07:03:15.638Z,68.91
2018-07-11T07:04:15.629Z,67.07
2018-07-11T07:05:15.680Z,67.47
2018-07-11T07:06:15.610Z,67.74
2018-07-11T07:07:15.589Z,67.74
2018-07-11T07:08:15.577Z,65.69
2018-07-11T07:09:15.566Z,65.49
2018-07-11T07:10:15.640Z,65.39
2018-07-11T07:11:16.118Z,65.16
2018-07-11T07:12:15.536Z,64.52
2018-07-11T07:13:15.525Z,65.53
2018-07-11T07:14:15.514Z,65.12
2018-07-11T07:15:15.569Z,64.92
2018-07-11T07:16:15.497Z,64.12
2018-07-11T07:17:15.485Z,64.12
2018-07-11T07:18:15.485Z,64.02
2018-07-11T07:19:15.459Z,64.05
2018-07-11T07:20:15.514Z,64.12
2018-07-11T07:21:15.442Z,63.15
2018-07-11T07:22:15.439Z,62.29
2018-07-11T07:23:15.420Z,62.19
2018-07-11T07:24:15.411Z,61.05
2018-07-11T07:25:15.466Z,61.15
2018-07-11T07:26:15.389Z,60.29
2018-07-11T07:27:15.388Z,59.56
2018-07-11T07:28:15.367Z,58.16
2018-07-11T07:29:15.359Z,58.23
2018-07-11T07:30:15.427Z,57.90
2018-07-11T07:31:15.334Z,57.28
2018-07-11T07:32:16.126Z,56.98
2018-07-11T07:33:15.317Z,56.24
2018-07-11T07:34:15.309Z,56.22
2018-07-11T07:35:15.358Z,56.42
2018-07-11T07:36:15.287Z,55.40
2018-07-11T07:37:15.273Z,55.07
2018-07-11T07:38:15.267Z,55.24
2018-07-11T07:39:15.257Z,53.34
2018-07-11T07:40:15.317Z,52.62
2018-07-11T07:41:15.237Z,53.72
2018-07-11T07:42:15.228Z,52.92
2018-07-11T07:43:15.212Z,52.69
2018-07-11T07:44:15.203Z,51.89
2018-07-11T07:45:15.264Z,52.09
2018-07-11T07:46:15.184Z,51.77
2018-07-11T07:47:15.176Z,52.27
2018-07-11T07:48:15.165Z,53.12
2018-07-11T07:49:15.154Z,54.14
2018-07-11T07:50:15.208Z,53.17
2018-07-11T07:51:15.131Z,53.32
2018-07-11T07:52:15.120Z,54.55
2018-07-11T07:53:15.621Z,55.57
2018-07-11T07:54:15.100Z,55.20
2018-07-11T07:55:15.162Z,56.85
2018-07-11T07:56:15.082Z,58.43
2018-07-11T07:57:15.077Z,56.37
2018-07-11T07:58:15.075Z,54.42
2018-07-11T07:59:15.051Z,54.19
2018-07-11T08:00:15.106Z,52.97
2018-07-11T08:01:15.032Z,52.74
2018-07-11T08:02:15.021Z,52.09
2018-07-11T08:03:15.013Z,50.49
2018-07-11T08:04:15.001Z,49.68
2018-07-11T08:05:15.059Z,50.17
2018-07-11T08:06:14.987Z,51.77
2018-07-11T08:07:14.971Z,51.40
2018-07-11T08:08:14.959Z,51.10
2018-07-11T08:09:14.953Z,51.34
2018-07-11T08:10:15.041Z,52.57
2018-07-11T08:11:14.947Z,52.99
2018-07-11T08:12:16.735Z,55.12
2018-07-11T08:13:14.909Z,54.85
2018-07-11T08:14:16.622Z,54.85
2018-07-11T08:15:14.954Z,53.07
2018-07-11T08:16:14.879Z,51.40
2018-07-11T08:17:14.868Z,51.42
2018-07-11T08:18:14.865Z,52.25
2018-07-11T08:19:14.848Z,52.55
2018-07-11T08:20:14.910Z,53.34
2018-07-11T08:21:14.856Z,53.19
2018-07-11T08:22:14.818Z,53.59
2018-07-11T08:23:15.197Z,54.82
2018-07-11T08:24:14.817Z,55.42
2018-07-11T08:25:14.851Z,53.64
2018-07-11T08:26:15.137Z,53.74
2018-07-11T08:27:15.191Z,53.82
2018-07-11T08:28:15.162Z,52.64
2018-07-11T08:29:14.749Z,51.42
2018-07-11T08:30:15.351Z,52.14
2018-07-11T08:31:15.016Z,52.27
2018-07-11T08:32:14.881Z,53.09
2018-07-11T08:33:15.100Z,52.19
2018-07-11T08:34:15.013Z,50.17
2018-07-11T08:35:15.954Z,50.55
2018-07-11T08:36:14.740Z,49.70
2018-07-11T08:37:14.960Z,46.97
2018-07-11T08:38:15.108Z,47.39
2018-07-11T08:39:15.094Z,50.23
2018-07-11T08:40:14.948Z,49.13
2018-07-11T08:41:14.792Z,46.57
2018-07-11T08:42:14.764Z,47.89
2018-07-11T08:43:14.772Z,49.30
2018-07-11T08:44:14.596Z,49.60
2018-07-11T08:45:14.593Z,47.37
2018-07-11T08:46:16.620Z,46.55
2018-07-11T08:47:22.097Z,45.39
2018-07-11T08:48:22.732Z,45.17
2018-07-11T08:49:23.601Z,43.14
2018-07-11T08:50:14.551Z,44.41
2018-07-11T08:51:14.596Z,43.30
2018-07-11T08:52:14.644Z,41.79
2018-07-11T08:53:14.510Z,41.69
2018-07-11T08:54:14.899Z,41.20
2018-07-11T08:55:22.827Z,41.18
2018-07-11T08:56:23.204Z,40.88
2018-07-11T08:57:14.824Z,39.87
2018-07-11T08:58:14.465Z,39.87
2018-07-11T08:59:14.465Z,39.48
2018-07-11T09:00:14.483Z,39.56
2018-07-11T09:01:14.496Z,38.86
2018-07-11T09:02:14.427Z,40.45
2018-07-11T09:03:14.419Z,39.85
2018-07-11T09:04:14.413Z,39.64
2018-07-11T09:05:14.399Z,39.24
2018-07-11T09:06:14.457Z,39.72
2018-07-11T09:07:14.382Z,39.42
2018-07-11T09:08:14.371Z,40.41
2018-07-11T09:09:14.365Z,41.99
2018-07-11T09:10:14.354Z,39.62
2018-07-11T09:11:14.417Z,38.63
2018-07-11T09:12:14.337Z,38.41
2018-07-11T09:13:14.327Z,38.89
2018-07-11T09:14:14.323Z,38.59
2018-07-11T09:15:15.290Z,37.88
2018-07-11T09:16:14.370Z,37.96
2018-07-11T09:17:15.289Z,37.87
2018-07-11T09:18:14.287Z,37.65
2018-07-11T09:19:14.282Z,36.96
2018-07-11T09:20:14.268Z,36.35
2018-07-11T09:21:14.323Z,38.14
2018-07-11T09:22:14.251Z,37.43
2018-07-11T09:23:14.248Z,36.25
2018-07-11T09:24:14.291Z,35.94
2018-07-11T09:25:14.228Z,35.94
2018-07-11T09:26:14.280Z,36.55
2018-07-11T09:27:14.208Z,37.05
2018-07-11T09:28:14.203Z,39.89
2018-07-11T09:29:14.193Z,39.83
2018-07-11T09:30:14.184Z,42.14
2018-07-11T09:31:14.244Z,41.89
2018-07-11T09:32:14.170Z,42.33
2018-07-11T09:33:14.184Z,41.99
2018-07-11T09:34:14.152Z,43.20
2018-07-11T09:35:14.139Z,39.37
2018-07-11T09:36:14.194Z,39.42
2018-07-11T09:37:14.125Z,38.31
2018-07-11T09:38:14.789Z,37.92
2018-07-11T09:39:14.103Z,37.01
2018-07-11T09:40:14.097Z,37.96
2018-07-11T09:41:14.154Z,36.09
2018-07-11T09:42:14.084Z,37.35
2018-07-11T09:43:14.071Z,38.34
2018-07-11T09:44:14.066Z,37.04
2018-07-11T09:45:14.052Z,36.04
2018-07-11T09:46:14.128Z,35.03
2018-07-11T09:47:14.036Z,34.13
2018-07-11T09:48:14.032Z,34.59
2018-07-11T09:49:14.016Z,34.28
2018-07-11T09:50:14.007Z,33.28
2018-07-11T09:51:14.081Z,32.71
2018-07-11T09:52:14.051Z,33.20
2018-07-11T09:53:13.982Z,32.61
2018-07-11T09:54:13.975Z,32.71
2018-07-11T09:55:13.973Z,32.40
2018-07-11T09:56:14.020Z,32.18
2018-07-11T09:57:13.955Z,31.79
2018-07-11T09:58:13.943Z,31.60
2018-07-11T09:59:14.788Z,31.48
2018-07-11T10:00:13.928Z,31.17
2018-07-11T10:01:13.982Z,31.07
2018-07-11T10:02:13.930Z,31.09
2018-07-11T10:03:13.922Z,31.51
2018-07-11T10:04:13.897Z,32.51
2018-07-11T10:05:13.920Z,34.33
2018-07-11T10:06:13.948Z,34.58
2018-07-11T10:07:13.867Z,35.00
2018-07-11T10:08:13.864Z,38.20
2018-07-11T10:09:13.849Z,35.40
2018-07-11T10:10:13.843Z,34.94
2018-07-11T10:11:13.897Z,33.53
2018-07-11T10:12:13.826Z,34.54
2018-07-11T10:13:13.817Z,35.17
2018-07-11T10:14:13.808Z,35.44
2018-07-11T10:15:13.821Z,33.86
2018-07-11T10:16:13.789Z,34.27
2018-07-11T10:17:13.844Z,33.59
2018-07-11T10:18:13.775Z,34.18
2018-07-11T10:19:13.764Z,34.89
2018-07-11T10:20:14.289Z,34.67
2018-07-11T10:21:13.747Z,34.67
2018-07-11T10:22:13.824Z,33.91
2018-07-11T10:23:13.753Z,35.84
2018-07-11T10:24:13.719Z,34.18
2018-07-11T10:25:13.714Z,32.35
2018-07-11T10:26:13.700Z,31.27
2018-07-11T10:27:13.757Z,32.18
2018-07-11T10:28:13.686Z,31.77
2018-07-11T10:29:13.675Z,31.07
2018-07-11T10:30:13.667Z,29.59
2018-07-11T10:31:13.663Z,29.48
2018-07-11T10:32:13.715Z,29.85
2018-07-11T10:33:13.638Z,29.87
2018-07-11T10:34:13.630Z,31.07
2018-07-11T10:35:13.624Z,30.10
2018-07-11T10:36:13.680Z,30.77
2018-07-11T10:37:13.671Z,29.87
2018-07-11T10:38:13.599Z,29.98
2018-07-11T10:39:13.628Z,29.69
2018-07-11T10:40:13.580Z,30.70
2018-07-11T10:41:14.287Z,32.28
2018-07-11T10:42:13.632Z,31.73
2018-07-11T10:43:13.563Z,32.74
2018-07-11T10:44:13.546Z,32.46
2018-07-11T10:45:13.533Z,32.57
2018-07-11T10:46:13.535Z,32.77
2018-07-11T10:47:13.589Z,32.39
2018-07-11T10:48:13.510Z,33.39
2018-07-11T10:49:21.616Z,32.82
2018-07-11T10:50:21.628Z,33.82
2018-07-11T10:51:13.487Z,34.10
2018-07-11T10:52:13.543Z,32.82
2018-07-11T10:53:13.463Z,34.39
2018-07-11T10:54:13.451Z,34.10
2018-07-11T10:55:13.449Z,34.10
2018-07-11T10:56:13.435Z,32.72
2018-07-11T10:57:13.492Z,33.01
2018-07-11T10:58:13.413Z,32.32
2018-07-11T10:59:13.408Z,33.70
2018-07-11T11:00:35.963Z,33.51
2018-07-11T11:01:13.400Z,32.92
2018-07-11T11:02:13.443Z,34.48
2018-07-11T11:03:13.366Z,32.77
2018-07-11T11:04:13.354Z,33.07
2018-07-11T11:05:13.346Z,32.15
2018-07-11T11:06:13.362Z,31.07
2018-07-11T11:07:13.396Z,31.23
2018-07-11T11:08:13.321Z,30.81
2018-07-11T11:09:13.310Z,29.58
2018-07-11T11:10:13.302Z,27.66
2018-07-11T11:11:13.855Z,27.64
2018-07-11T11:12:13.388Z,26.63
2018-07-11T11:13:13.276Z,26.92
2018-07-11T11:14:13.272Z,27.22
2018-07-11T11:15:13.258Z,28.64
2018-07-11T11:16:13.249Z,27.44
2018-07-11T11:17:13.309Z,27.51
2018-07-11T11:18:13.412Z,26.93
2018-07-11T11:19:13.229Z,27.15
2018-07-11T11:20:13.215Z,27.06
2018-07-11T11:21:13.218Z,27.37
2018-07-11T11:22:13.261Z,26.78
2018-07-11T11:23:13.190Z,27.28
2018-07-11T11:24:13.181Z,27.76
2018-07-11T11:25:13.171Z,27.26
2018-07-11T11:26:13.163Z,27.26
2018-07-11T11:27:13.233Z,27.78
2018-07-11T11:28:13.147Z,27.81
2018-07-11T11:29:13.142Z,29.70
2018-07-11T11:30:13.128Z,29.13
2018-07-11T11:31:13.120Z,29.83
2018-07-11T11:32:13.425Z,30.35
2018-07-11T11:33:13.101Z,31.73
2018-07-11T11:34:13.096Z,29.76
2018-07-11T11:35:13.084Z,30.65
2018-07-11T11:36:13.073Z,29.66
2018-07-11T11:37:13.128Z,29.94
2018-07-11T11:38:13.056Z,28.85
2018-07-11T11:39:13.044Z,29.91
2018-07-11T11:40:13.036Z,29.00
2018-07-11T11:41:13.031Z,28.19
2018-07-11T11:42:13.446Z,29.17
2018-07-11T11:43:13.018Z,28.89
2018-07-11T11:44:13.000Z,29.90
2018-07-11T11:45:12.992Z,30.91
2018-07-11T11:46:12.981Z,30.65
2018-07-11T11:47:13.038Z,30.76
2018-07-11T11:48:12.964Z,30.08
2018-07-11T11:49:12.958Z,31.09
2018-07-11T11:50:12.947Z,32.77
2018-07-11T11:51:12.939Z,31.90
2018-07-11T11:52:12.986Z,31.32
2018-07-11T11:53:13.852Z,32.31
2018-07-11T11:54:12.903Z,32.32
2018-07-11T11:55:12.892Z,32.75
2018-07-11T11:56:12.889Z,34.15
2018-07-11T11:57:12.876Z,34.17
2018-07-11T11:58:12.928Z,34.97
2018-07-11T11:59:12.855Z,34.59
2018-07-11T12:00:12.859Z,34.59
2018-07-11T12:01:12.834Z,34.51
2018-07-11T12:02:12.823Z,35.00
2018-07-11T12:03:12.884Z,35.21
2018-07-11T12:04:12.803Z,35.07
2018-07-11T12:05:12.795Z,34.64
2018-07-11T12:06:12.789Z,33.62
2018-07-11T12:07:12.838Z,32.82
2018-07-11T12:08:12.833Z,31.73
2018-07-11T12:09:12.753Z,31.42
2018-07-11T12:10:12.745Z,31.72
2018-07-11T12:11:12.745Z,31.23
2018-07-11T12:12:12.726Z,30.22
2018-07-11T12:13:12.783Z,29.58
2018-07-11T12:14:15.352Z,29.45
2018-07-11T12:15:12.695Z,29.10
2018-07-11T12:16:12.695Z,29.90
2018-07-11T12:17:12.678Z,31.00
2018-07-11T12:18:12.736Z,30.83
2018-07-11T12:19:12.658Z,30.83
2018-07-11T12:20:12.656Z,31.13
2018-07-11T12:21:12.684Z,30.73
2018-07-11T12:22:12.628Z,31.20
2018-07-11T12:23:12.689Z,29.89
2018-07-11T12:24:12.619Z,29.05
2018-07-11T12:25:12.600Z,27.91
2018-07-11T12:26:12.592Z,27.11
2018-07-11T12:27:12.578Z,27.04
2018-07-11T12:28:12.652Z,27.64
2018-07-11T12:29:12.559Z,27.04
2018-07-11T12:30:20.747Z,26.58
2018-07-11T12:31:20.632Z,29.83
2018-07-11T12:32:20.764Z,29.45
2018-07-11T12:33:12.586Z,27.69
2018-07-11T12:34:12.514Z,29.48
2018-07-11T12:35:12.506Z,29.89
2018-07-11T12:36:12.503Z,29.21
2018-07-11T12:37:20.582Z,31.29
2018-07-11T12:38:12.544Z,30.80
2018-07-11T12:39:12.464Z,31.90
2018-07-11T12:40:12.457Z,30.93
2018-07-11T12:41:21.518Z,32.31
2018-07-11T12:42:12.458Z,30.94
2018-07-11T12:43:12.502Z,31.34
2018-07-11T12:44:12.415Z,32.64
2018-07-11T12:45:12.428Z,33.04
2018-07-11T12:46:12.413Z,32.47
2018-07-11T12:47:12.386Z,32.67
2018-07-11T12:48:12.450Z,32.67
2018-07-11T12:49:12.369Z,32.57
2018-07-11T12:50:12.358Z,32.77
2018-07-11T12:51:12.344Z,32.67
2018-07-11T12:52:12.336Z,32.39